Meath Environmental Platform

Observations for Trim Patrick St

Time AQI Temp °C Hum % Pres Pa CO μg/m³ H₂S μg/m³ NO μg/m³ NO₂ μg/m³ O₃ μg/m³ SO₂ μg/m³ PM1 μg/m³ PM2.5 μg/m³ PM10 μg/m³
Monday 3 August 2026
06:07 1 15.7 81 38,460 0.23 4.22 1.9 28.39 36.23 0 6.29 10.76 11.84
06:06 1 15.7 81 38,460 0.24 1.61 1.77 26.11 35.82 0 4.57 7.28 8.01
06:05 1 15.7 81 38,460 0.22 1.79 1.89 26.82 30.18 0 5.43 10.77 11.85
06:04 1 15.6 81 38,460 0.23 0.02 1.9 19.29 39.43 0 4.57 9.37 10.3
06:03 1 15.7 81 38,460 0.23 0 1.82 19.25 40.17 0 5.43 9.37 10.3
06:02 1 15.6 81 38,460 0.22 0 1.81 15.41 42.77 0 4.57 8.67 9.54
06:01 1 15.6 80 38,460 0.23 0.18 1.89 17.51 43.13 0 5.43 8.68 9.55
06:00 1 15.6 81 38,460 0.21 1.37 1.93 27.17 31.67 0 5.43 9.37 10.3
05:59 1 15.6 81 38,460 0.22 0.7 1.94 21.28 39.01 0 4.57 7.96 8.76
05:57 1 15.6 80 38,460 0.22 3.02 1.95 27.86 41.23 0 3.71 7.29 8.02
05:56 1 15.6 81 38,460 0.23 1.84 1.86 30.16 32.42 0 6.29 10.06 11.06
05:55 1 15.6 81 38,460 0.22 1.43 1.82 21.58 38.62 0 4.57 8.65 9.52
05:54 1 15.6 81 38,460 0.22 2.18 1.77 25.52 36.28 0 5.43 9.37 10.3
05:53 1 15.6 81 38,460 0.22 0.1 1.79 21.29 36.77 0 5.43 8.66 9.53
05:52 1 15.5 81 38,460 0.22 2.26 1.7 22.32 41.91 0 5.43 9.36 10.29
05:51 1 15.5 81 38,460 0.22 3.8 1.91 31.42 39.38 0 5.43 9.37 10.3
05:50 1 15.5 81 38,460 0.22 0.46 1.85 22.05 37.55 0 5.43 7.97 8.77
05:49 1 15.5 81 38,460 0.22 0 1.78 22.06 35.75 0 4.57 8.67 9.54
05:48 1 15.5 81 38,460 0.22 0.07 1.92 21.32 38.31 0 4.57 7.97 8.77
05:47 1 15.5 81 38,460 0.22 0.41 1.94 18.04 41.68 0 4.57 8.66 9.53